Hovedside
METAR-TAF:

METAR-TAF

Lufthavner :

La Grande/Union County Airport

La Grande, Oregon, USA

breddegrad: 45-17N, lengdegrad: 118-00W, høyde over havet: 827 m

Gjeldene værobservasjon

Denne rapporten ble laget for 35 minutter siden, klokken 12:56 UTC
Vind 16 kt fra Sør
Temperatur 4°C
Luftfuktighet 81%
Trykk 1022 hPa
Sikt: 16.1 km
Brutte skyer i en høyde av 4700 ft
Overskyet i en høyde av 5500 ft

METAR: KLGD 231256Z AUTO 18016KT 10SM BKN047 OVC055 04/01 A3019 RMK AO2 RAE16 SLP240 P0000 T00390011

Tid: 05:31 (13:31 UTC)


TAF: fraværende

Værobservasjoner og værvarsel for over 4000 flyplasser (METAR- og TAF-rapporter).

Tilgjengelige stasjoner er representert av de røde og gule prikkene på kartet.

Hold musepekeren over prikken for å se navnet på stasjonen.

Klikk så for å se værobservasjoner og -varsler.

For å forandre kartet kan du klikke på den grønne knappen med svart kryss for å zoome inn, på den grønne knappen med strek for å zoome ut, eller på de grønne pilene for å se tilstøtende kart.


METAR-TAF: